Tryon, Nebraska
Current Conditions -  °F | °C
As of 6:53 PM on Thursday 18 Dec 2014 (Local Time) from KLBF Reporting Station
Haze Haze  
Wind Chill: 24°   Ceiling: Unl
Heat Index: 24°   Visibility: 4mi
Dew Point: 22°   Wind: 3mph
Humidity: 91%   Direction: 200°SSW
Pressure: 30.09"   Gusts: NA
Location:  41.55°N, 100.96°W
Report Text: KLBF 190053Z AUTO 20003KT 4SM BR FEW005 M04/M06 A3009 RMK AO2 SLP222 T10441056
Loading
Personal Weather Stations






























Interactive Weather Map New forecast layout! Learn more

10-Day Weather Forecast

Advertisements
Track Severe Weather on mobile